Time;durP1;ratioP1;P1;durP2;ratioP2;P2;SDS_P1;SDS_P2;PMS_P1;PMS_P2;Temp;Humidity;BMP_temperature;BMP_pressure;BME280_temperature;BME280_humidity;BME280_pressure;Samples;Min_cycle;Max_cycle;Signal;HPM_P1;HPM_P2
2022/02/01 00:02:33;;;;;;;16.52;4.93;;;2.20;99.90;;;0.66;100.00;100585.16;4917664;28;20120;-81
2022/02/01 00:05:09;;;;;;;16.08;4.85;;;2.20;99.90;;;0.69;100.00;100587.69;4933055;28;20030;-82
2022/02/01 00:10:53;;;;;;;15.77;4.68;;;2.20;99.90;;;0.70;100.00;100607.56;4851059;28;20027;-81
2022/02/01 00:14:00;;;;;;;31.95;5.22;;;2.20;99.90;;;0.74;100.00;100619.66;4991123;28;20058;-81
2022/02/01 00:38:06;;;;;;;21.88;4.20;;;2.50;99.90;;;0.94;100.00;100617.72;4890162;28;20027;-84
2022/02/01 00:40:39;;;;;;;20.17;4.07;;;2.40;99.90;;;0.93;100.00;100616.03;4879190;28;20097;-84
2022/02/01 00:47:57;;;;;;;18.73;4.25;;;2.50;99.90;;;0.94;100.00;100615.13;4919802;28;20039;-82
2022/02/01 00:50:33;;;;;;;14.15;3.80;;;2.50;99.90;;;0.96;100.00;100617.72;4908287;28;20105;-82
2022/02/01 00:52:59;;;;;;;20.55;4.18;;;2.50;99.90;;;0.97;100.00;100609.94;4932262;28;20025;-82
2022/02/01 00:55:25;;;;;;;22.23;3.85;;;2.50;99.90;;;0.97;100.00;100620.31;4901238;28;20394;-79
2022/02/01 00:57:56;;;;;;;22.73;3.60;;;2.50;99.90;;;0.95;100.00;100598.72;4932804;28;20072;-79
2022/02/01 01:00:23;;;;;;;21.10;3.97;;;2.50;99.90;;;0.93;100.00;100603.06;4931117;28;20085;-79
2022/02/01 01:02:49;;;;;;;26.27;3.80;;;2.50;99.90;;;0.94;100.00;100604.75;4930677;28;20034;-80
2022/02/01 01:05:15;;;;;;;17.35;3.85;;;2.50;99.90;;;0.95;100.00;100590.06;4912896;28;20409;-80
2022/02/01 01:07:41;;;;;;;19.13;4.25;;;2.50;99.90;;;0.92;100.00;100583.19;4905662;28;20028;-79
2022/02/01 01:10:11;;;;;;;22.70;3.60;;;2.50;99.90;;;0.93;100.00;100591.81;4933340;28;20034;-81
2022/02/01 01:12:49;;;;;;;15.68;3.30;;;2.50;99.90;;;0.90;100.00;100577.16;4926930;28;20059;-79
2022/02/01 01:15:25;;;;;;;14.63;4.07;;;2.40;99.90;;;0.87;100.00;100607.44;4900276;28;20030;-81
2022/02/01 01:45:35;;;;;;;19.85;5.00;;;2.30;99.90;;;0.72;100.00;100587.69;4936201;28;20045;-79
2022/02/01 01:53:33;;;;;;;11.82;3.63;;;2.30;99.90;;;0.69;100.00;100554.00;4921075;28;20073;-79
2022/02/01 01:56:06;;;;;;;8.50;2.47;;;2.20;99.90;;;0.69;100.00;100562.66;4881052;28;20039;-79
2022/02/01 01:58:32;;;;;;;10.82;3.10;;;2.30;99.90;;;0.70;100.00;100555.75;4905255;28;20040;-79
2022/02/01 02:01:14;;;;;;;10.95;3.00;;;2.20;99.90;;;0.69;100.00;100561.78;4910765;28;20042;-79
2022/02/01 02:03:48;;;;;;;7.03;2.65;;;2.30;99.90;;;0.72;100.00;100551.41;4965108;28;20045;-79
2022/02/01 02:06:17;;;;;;;10.25;2.40;;;2.30;99.90;;;0.72;100.00;100541.03;4918671;28;20570;-79
2022/02/01 02:08:48;;;;;;;16.48;3.10;;;2.30;99.90;;;0.75;100.00;100543.59;4894356;28;20038;-80
2022/02/01 02:17:06;;;;;;;12.90;3.85;;;2.30;99.90;;;0.76;100.00;100542.72;4905737;28;20040;-79
2022/02/01 02:19:33;;;;;;;17.05;4.25;;;2.30;99.90;;;0.76;100.00;100527.19;4949400;28;20119;-79
2022/02/01 02:22:09;;;;;;;23.65;5.07;;;2.30;99.90;;;0.76;100.00;100533.22;4955026;28;20025;-79
2022/02/01 02:24:42;;;;;;;16.77;4.57;;;2.30;99.90;;;0.74;100.00;100529.78;4977390;28;20407;-78
2022/02/01 02:27:08;;;;;;;27.63;4.72;;;2.30;99.90;;;0.72;100.00;100528.09;4949025;28;20018;-79
2022/02/01 02:29:35;;;;;;;17.65;4.25;;;2.30;99.90;;;0.70;100.00;100522.06;4848492;28;20038;-79
2022/02/01 02:32:07;;;;;;;21.02;4.50;;;2.30;99.90;;;0.66;100.00;100528.13;4926217;28;20022;-78
2022/02/01 02:34:33;;;;;;;20.00;3.95;;;2.20;99.90;;;0.61;100.00;100523.00;4887148;28;20031;-78
2022/02/01 02:37:02;;;;;;;23.95;4.75;;;2.20;99.90;;;0.60;100.00;100496.22;4908299;28;20034;-79
2022/02/01 02:39:48;;;;;;;18.15;4.45;;;2.20;99.90;;;0.60;100.00;100516.09;4891417;28;20088;-79
2022/02/01 02:42:27;;;;;;;22.75;5.25;;;2.20;99.90;;;0.56;100.00;100506.63;4907006;28;20099;-79
2022/02/01 02:45:09;;;;;;;25.60;4.85;;;2.20;99.90;;;0.52;100.00;100468.66;4948521;28;20049;-79
2022/02/01 02:47:35;;;;;;;16.02;4.45;;;2.20;99.90;;;0.54;100.00;100446.19;4952477;28;20037;-80
2022/02/01 02:50:04;;;;;;;13.98;4.70;;;2.20;99.90;;;0.53;100.00;100472.97;4896539;28;20102;-80
2022/02/01 02:52:30;;;;;;;21.27;4.93;;;2.20;99.90;;;0.56;100.00;100493.66;4852670;28;20034;-79
2022/02/01 02:55:00;;;;;;;20.75;5.28;;;2.10;99.90;;;0.58;100.00;100485.03;4892923;28;20027;-79
2022/02/01 02:57:27;;;;;;;26.05;5.55;;;2.20;99.90;;;0.59;100.00;100494.50;4889273;28;20053;-79
2022/02/01 02:59:53;;;;;;;24.20;6.00;;;2.20;99.90;;;0.63;100.00;100482.38;4934338;28;20049;-79
2022/02/01 03:02:19;;;;;;;18.13;5.32;;;2.20;99.90;;;0.65;100.00;100487.53;4906495;28;20016;-79
2022/02/01 03:04:46;;;;;;;24.63;5.43;;;2.20;99.90;;;0.68;100.00;100495.28;4971772;28;20045;-79
2022/02/01 03:07:16;;;;;;;32.67;5.57;;;2.20;99.90;;;0.66;100.00;100495.31;4924246;28;20147;-80
2022/02/01 03:09:44;;;;;;;31.05;4.70;;;2.30;99.90;;;0.69;100.00;100491.81;4895486;28;20099;-79
2022/02/01 03:12:16;;;;;;;30.92;4.80;;;2.20;99.90;;;0.71;100.00;100488.31;4935121;28;20072;-79
2022/02/01 03:14:57;;;;;;;26.63;5.22;;;2.30;99.90;;;0.72;100.00;100481.44;4873296;28;20093;-79
2022/02/01 03:19:57;;;;;;;41.28;5.60;;;2.30;99.90;;;0.72;100.00;100489.22;4949493;28;20058;-79
2022/02/01 03:22:30;;;;;;;30.35;6.22;;;2.30;99.90;;;0.71;100.00;100487.47;4875176;28;20026;-80
2022/02/01 03:25:00;;;;;;;41.22;5.97;;;2.30;99.90;;;0.71;100.00;100477.09;4933338;28;20026;-79
2022/02/01 03:27:29;;;;;;;40.72;6.70;;;2.30;99.90;;;0.71;100.00;100483.16;4944704;28;20049;-79
2022/02/01 03:29:58;;;;;;;42.78;6.82;;;2.30;99.90;;;0.71;100.00;100477.09;4911277;28;20096;-78
2022/02/01 03:32:24;;;;;;;61.70;7.85;;;2.30;99.90;;;0.71;100.00;100474.50;4904090;28;20200;-79
2022/02/01 03:37:17;;;;;;;48.20;8.32;;;2.40;99.90;;;0.74;100.00;100472.75;4939516;28;20049;-78
2022/02/01 03:39:51;;;;;;;55.95;8.65;;;2.40;99.90;;;0.78;100.00;100469.25;4916680;28;20046;-79
2022/02/01 03:42:20;;;;;;;40.97;7.10;;;2.40;99.90;;;0.80;100.00;100466.66;4923050;28;20480;-79
2022/02/01 03:44:46;;;;;;;36.20;7.32;;;2.40;99.90;;;0.87;100.00;100452.75;4907328;28;20022;-79
2022/02/01 03:47:15;;;;;;;46.28;8.27;;;2.50;99.90;;;0.91;100.00;100451.00;4909869;28;20078;-79
2022/02/01 03:49:42;;;;;;;47.38;10.07;;;2.50;99.90;;;0.90;100.00;100444.94;4960422;28;20460;-78
2022/02/01 03:52:10;;;;;;;59.10;11.93;;;2.50;99.90;;;0.90;100.00;100438.91;4905838;28;20554;-78
2022/02/01 03:54:37;;;;;;;51.88;11.48;;;2.50;99.90;;;0.91;100.00;100427.66;4894934;28;20661;-80
2022/02/01 03:57:11;;;;;;;49.13;11.98;;;2.50;99.90;;;0.94;100.00;100423.28;4878849;28;21612;-78
2022/02/01 03:59:37;;;;;;;58.85;11.45;;;2.50;99.90;;;0.95;100.00;100427.59;4941990;28;20033;-78
2022/02/01 04:02:04;;;;;;;55.47;12.88;;;2.60;99.90;;;0.97;100.00;100419.78;4936903;28;20101;-79
2022/02/01 04:04:36;;;;;;;60.25;11.80;;;2.60;99.90;;;0.99;100.00;100421.50;4929838;28;20061;-78
2022/02/01 04:07:08;;;;;;;56.00;11.20;;;2.60;99.90;;;1.00;100.00;100412.00;4947531;28;20109;-78
2022/02/01 04:09:36;;;;;;;49.53;13.75;;;2.60;99.90;;;1.01;100.00;100405.91;4861227;28;20042;-79
2022/02/01 04:12:05;;;;;;;57.22;13.55;;;2.60;99.90;;;0.97;100.00;100399.06;4940339;28;20406;-78
2022/02/01 04:14:34;;;;;;;45.78;12.10;;;2.60;99.90;;;0.99;100.00;100395.59;4908008;28;20026;-78
2022/02/01 04:17:04;;;;;;;46.30;13.27;;;2.60;99.90;;;0.98;100.00;100378.28;4952481;28;20169;-79
2022/02/01 04:19:35;;;;;;;54.17;14.45;;;2.60;99.90;;;1.00;100.00;100376.53;4931856;28;20161;-78
2022/02/01 04:22:02;;;;;;;56.08;13.05;;;2.60;99.90;;;0.99;100.00;100373.97;4938509;28;20042;-78
2022/02/01 04:24:30;;;;;;;51.63;14.25;;;2.60;99.90;;;1.00;100.00;100379.13;4896240;28;20059;-78
2022/02/01 04:27:05;;;;;;;56.25;14.00;;;2.70;99.90;;;1.03;100.00;100379.09;4903199;28;20722;-78
2022/02/01 04:29:32;;;;;;;46.85;13.32;;;2.70;99.90;;;1.02;100.00;100354.06;4920804;28;20050;-78
2022/02/01 04:31:58;;;;;;;42.95;13.30;;;2.70;99.90;;;1.02;100.00;100379.13;4919425;28;20370;-78
2022/02/01 04:34:31;;;;;;;65.63;15.00;;;2.70;99.90;;;0.97;100.00;100381.78;4890544;28;20027;-79
2022/02/01 04:36:57;;;;;;;49.38;12.88;;;2.60;99.90;;;0.98;100.00;100382.63;4907194;28;20038;-78
2022/02/01 04:39:23;;;;;;;51.92;14.45;;;2.60;99.90;;;0.95;100.00;100387.84;4892806;28;20038;-78
2022/02/01 04:41:49;;;;;;;47.08;13.15;;;2.60;99.90;;;0.89;100.00;100399.16;4909041;28;20041;-79
2022/02/01 04:44:20;;;;;;;47.97;13.73;;;2.60;99.90;;;0.87;100.00;100394.88;4942778;28;20033;-80
2022/02/01 04:46:46;;;;;;;38.05;13.10;;;2.50;99.90;;;0.77;100.00;100396.69;4873703;28;20039;-79
2022/02/01 04:49:12;;;;;;;41.55;11.35;;;2.50;99.90;;;0.72;100.00;100390.72;4940019;28;20042;-80
2022/02/01 04:51:39;;;;;;;37.95;11.55;;;2.40;99.90;;;0.71;100.00;100391.59;4919864;28;20056;-79
2022/02/01 04:54:06;;;;;;;33.05;10.20;;;2.40;99.90;;;0.68;100.00;100399.41;4875912;28;20143;-79
2022/02/01 04:56:41;;;;;;;33.65;10.38;;;2.40;99.90;;;0.68;100.00;100397.66;4885480;28;20102;-79
2022/02/01 04:59:07;;;;;;;35.20;10.63;;;2.40;99.90;;;0.68;100.00;100387.31;4943759;28;20093;-77
2022/02/01 05:01:39;;;;;;;32.88;11.55;;;2.30;99.90;;;0.68;100.00;100389.03;4930372;28;20049;-79
2022/02/01 05:04:09;;;;;;;38.22;11.70;;;2.40;99.90;;;0.68;100.00;100381.28;4948707;28;20126;-78
2022/02/01 05:06:35;;;;;;;28.17;9.65;;;2.30;99.90;;;0.66;100.00;100376.09;4954063;28;20034;-77
2022/02/01 05:09:02;;;;;;;34.15;10.40;;;2.40;99.90;;;0.70;100.00;100380.38;5001047;28;20034;-78
2022/02/01 05:11:28;;;;;;;32.00;9.52;;;2.40;99.90;;;0.74;100.00;100337.16;4978173;28;20048;-78
2022/02/01 05:14:06;;;;;;;30.42;8.43;;;2.40;99.90;;;0.76;100.00;100376.84;4984973;28;20057;-79
2022/02/01 05:19:43;;;;;;;16.33;6.00;;;2.40;99.90;;;0.73;100.00;100382.06;4949118;28;20184;-78
2022/02/01 05:22:14;;;;;;;23.40;6.55;;;2.40;99.90;;;0.79;100.00;100376.81;4985538;28;20018;-79
2022/02/01 05:24:40;;;;;;;29.15;6.75;;;2.40;99.90;;;0.87;100.00;100387.94;4982249;28;20041;-77
2022/02/01 05:27:12;;;;;;;14.60;5.63;;;2.40;99.90;;;0.89;100.00;100398.31;4952997;28;20027;-79
2022/02/01 05:29:42;;;;;;;17.05;4.32;;;2.50;99.90;;;0.84;100.00;100393.16;4970787;28;20041;-78
2022/02/01 05:35:05;;;;;;;26.85;5.65;;;2.50;99.90;;;0.87;100.00;100398.31;4962183;28;20088;-78
2022/02/01 05:37:31;;;;;;;15.18;4.10;;;2.50;99.90;;;0.88;100.00;100394.00;4970609;28;20604;-79
2022/02/01 05:39:58;;;;;;;14.73;3.88;;;2.50;99.90;;;0.89;100.00;100395.72;4962488;28;20518;-79
2022/02/01 05:42:35;;;;;;;14.10;3.38;;;2.50;99.90;;;0.89;100.00;100393.13;4964514;28;20026;-78
2022/02/01 05:45:01;;;;;;;12.90;2.65;;;2.50;99.90;;;0.88;100.00;100396.56;4973299;28;20038;-79
2022/02/01 05:47:27;;;;;;;17.15;3.05;;;2.50;99.90;;;0.87;100.00;100381.91;4980799;28;20054;-77
2022/02/01 05:49:53;;;;;;;9.73;1.95;;;2.50;99.90;;;0.80;100.00;100399.28;4948129;28;20038;-78
2022/02/01 05:52:19;;;;;;;6.93;1.35;;;2.40;99.90;;;0.73;100.00;100372.53;4969270;28;20022;-78
2022/02/01 05:54:45;;;;;;;4.78;1.27;;;2.40;99.90;;;0.71;100.00;100378.63;4971604;28;20027;-78
2022/02/01 05:57:11;;;;;;;9.50;1.20;;;2.40;99.90;;;0.70;100.00;100384.69;4980275;28;20111;-78
2022/02/01 05:59:37;;;;;;;10.48;1.60;;;2.40;99.90;;;0.74;100.00;100395.00;4947665;28;20034;-78
2022/02/01 06:02:05;;;;;;;11.52;1.40;;;2.40;99.90;;;0.76;100.00;100398.44;4954181;28;20022;-78
2022/02/01 06:04:34;;;;;;;17.27;1.73;;;2.40;99.90;;;0.78;100.00;100395.84;4934095;28;20112;-78
2022/02/01 06:07:00;;;;;;;22.20;2.13;;;2.40;99.90;;;0.80;100.00;100392.34;4976667;28;20018;-79
2022/02/01 06:09:26;;;;;;;16.02;1.90;;;2.50;99.90;;;0.88;100.00;100394.00;4930193;28;20034;-77
2022/02/01 06:11:52;;;;;;;16.98;1.35;;;2.50;99.90;;;0.94;100.00;100397.34;4979131;28;20030;-79
2022/02/01 06:14:18;;;;;;;11.27;1.95;;;2.50;99.90;;;0.96;100.00;100389.56;4947008;28;20112;-78
2022/02/01 06:16:44;;;;;;;21.13;1.98;;;2.50;99.90;;;0.89;100.00;100400.91;4988599;28;20116;-78
2022/02/01 06:19:10;;;;;;;7.85;1.27;;;2.50;99.90;;;0.89;100.00;100385.34;4975093;28;20589;-78
2022/02/01 06:21:36;;;;;;;14.63;1.92;;;2.40;99.90;;;0.81;100.00;100390.63;4975861;28;20121;-78
2022/02/01 06:24:06;;;;;;;9.55;1.83;;;2.40;99.90;;;0.80;100.00;100374.22;4917698;28;20042;-79
2022/02/01 06:26:32;;;;;;;15.85;2.28;;;2.50;99.90;;;0.80;100.00;100368.19;4949313;28;20061;-78
2022/02/01 06:28:58;;;;;;;16.73;2.05;;;2.40;99.90;;;0.79;100.00;100374.22;4965145;28;20046;-78
2022/02/01 06:31:24;;;;;;;26.88;2.67;;;2.40;99.90;;;0.77;100.00;100360.41;4952848;28;20042;-78
2022/02/01 06:33:50;;;;;;;16.35;2.55;;;2.40;99.90;;;0.72;100.00;100377.78;4964731;28;20057;-78
2022/02/01 06:36:16;;;;;;;15.23;2.40;;;2.40;99.90;;;0.70;100.00;100362.22;4974296;28;20510;-78
2022/02/01 06:38:42;;;;;;;17.63;2.20;;;2.40;99.90;;;0.67;100.00;100340.66;4964756;28;20025;-78
2022/02/01 06:41:08;;;;;;;18.13;2.60;;;2.30;99.90;;;0.69;100.00;100346.69;4957333;28;20118;-78
2022/02/01 06:43:35;;;;;;;22.15;2.00;;;2.30;99.90;;;0.70;100.00;100351.88;4956074;28;20537;-78
2022/02/01 06:46:01;;;;;;;15.85;1.98;;;2.30;99.90;;;0.69;100.00;100352.75;4951195;28;20051;-78
2022/02/01 06:48:27;;;;;;;12.30;2.10;;;2.30;99.90;;;0.71;100.00;100353.56;4966534;28;20111;-78
2022/02/01 06:50:54;;;;;;;17.48;2.13;;;2.30;99.90;;;0.69;100.00;100357.94;4950136;28;20028;-78
2022/02/01 06:53:20;;;;;;;20.42;1.98;;;2.30;99.90;;;0.67;100.00;100362.28;4974544;28;20029;-78
2022/02/01 06:55:59;;;;;;;16.52;2.13;;;2.30;99.90;;;0.68;100.00;100357.94;4929367;28;20041;-78
2022/02/01 06:58:25;;;;;;;11.65;2.05;;;2.30;99.90;;;0.63;100.00;100359.72;4968796;28;20111;-77
2022/02/01 07:00:54;;;;;;;11.32;2.10;;;2.30;99.90;;;0.68;100.00;100373.50;4940842;28;20502;-79
2022/02/01 07:03:20;;;;;;;12.98;1.50;;;2.30;99.90;;;0.73;100.00;100369.94;4929511;28;20216;-78
2022/02/01 07:05:46;;;;;;;17.98;2.80;;;2.30;99.90;;;0.78;100.00;100370.78;4956461;28;20022;-78
2022/02/01 07:08:12;;;;;;;20.58;1.70;;;2.30;99.90;;;0.76;100.00;100367.34;4943597;28;20187;-79
2022/02/01 07:10:38;;;;;;;27.10;2.75;;;2.40;99.90;;;0.79;100.00;100351.75;4935125;28;20018;-78
2022/02/01 07:13:04;;;;;;;18.63;2.30;;;2.40;99.90;;;0.84;100.00;100366.38;4930309;28;20061;-77
2022/02/01 07:15:30;;;;;;;18.38;2.20;;;2.40;99.90;;;0.89;100.00;100373.25;4912363;28;20059;-79
2022/02/01 07:17:59;;;;;;;22.55;2.58;;;2.40;99.90;;;0.92;100.00;100338.63;4938171;28;20026;-78
2022/02/01 07:20:25;;;;;;;14.75;1.92;;;2.50;99.90;;;0.97;100.00;100365.34;4914287;28;20034;-78
2022/02/01 07:22:52;;;;;;;17.52;2.25;;;2.50;99.90;;;0.98;100.00;100364.47;4964810;28;20050;-80
2022/02/01 07:25:46;;;;;;;17.60;2.22;;;2.60;99.90;;;1.01;100.00;100362.69;4947181;28;20034;-78
2022/02/01 07:28:12;;;;;;;7.47;1.63;;;2.60;99.90;;;1.07;100.00;100359.16;4952904;28;20018;-78
2022/02/01 07:30:38;;;;;;;23.00;2.50;;;2.60;99.90;;;1.16;100.00;100361.63;4963653;28;20030;-77
2022/02/01 07:33:07;;;;;;;20.17;2.50;;;2.70;99.90;;;1.28;100.00;100342.47;4965144;28;20109;-77
2022/02/01 07:35:33;;;;;;;20.55;1.88;;;4.30;99.90;;;1.38;100.00;100356.13;4920203;28;20030;-77
2022/02/01 07:38:00;;;;;;;13.77;1.85;;;2.80;99.90;;;1.58;100.00;100348.91;4974212;28;20522;-77
2022/02/01 07:40:26;;;;;;;24.88;2.45;;;2.90;99.90;;;1.66;100.00;100359.16;4936033;28;20073;-77
2022/02/01 07:42:52;;;;;;;18.30;1.67;;;3.00;99.90;;;1.75;100.00;100355.56;4983982;28;20128;-77
2022/02/01 07:45:26;;;;;;;15.77;2.05;;;3.00;99.90;;;1.95;100.00;100366.50;4994092;28;20394;-76
2022/02/01 07:47:58;;;;;;;16.58;1.45;;;3.30;99.90;;;3.17;100.00;100362.38;4959269;28;20054;-78
2022/02/01 07:50:28;;;;;;;21.80;2.45;;;3.60;99.90;;;3.25;100.00;100362.22;4944064;28;20428;-78
2022/02/01 07:52:55;;;;;;;17.88;2.35;;;3.80;99.90;;;2.97;100.00;100356.75;4951643;28;20032;-78
2022/02/01 07:55:21;;;;;;;15.10;2.28;;;3.90;99.90;;;2.85;100.00;100361.34;4955359;28;20112;-77
2022/02/01 07:57:47;;;;;;;12.73;2.15;;;3.90;99.90;;;2.84;100.00;100351.81;4944268;28;20112;-76
2022/02/01 08:00:13;;;;;;;20.60;1.98;;;3.90;99.90;;;2.72;100.00;100346.88;4947247;28;20027;-78
2022/02/01 08:02:50;;;;;;;23.00;2.38;;;3.90;99.90;;;2.49;100.00;100356.88;4935829;28;20525;-78
2022/02/01 08:05:16;;;;;;;17.50;2.05;;;3.80;99.90;;;2.26;100.00;100348.59;4938148;28;20509;-77
2022/02/01 08:07:42;;;;;;;13.77;1.75;;;3.60;99.90;;;2.13;100.00;100343.66;4949593;28;20033;-78
2022/02/01 08:10:12;;;;;;;27.98;3.25;;;3.60;99.90;;;2.00;100.00;100340.44;4950734;28;20074;-77
2022/02/01 08:20:10;;;;;;;21.67;2.63;;;3.40;99.90;;;1.85;100.00;100336.34;4960219;28;20113;-77
2022/02/01 08:22:49;;;;;;;29.30;2.30;;;3.30;99.90;;;1.95;100.00;100334.47;4928478;28;20525;-78
2022/02/01 08:25:16;;;;;;;20.52;2.70;;;3.30;99.90;;;2.02;100.00;100328.28;4934063;28;20030;-76
2022/02/01 08:27:45;;;;;;;17.05;2.08;;;3.40;99.90;;;2.23;100.00;100332.25;4901034;28;22769;-79
2022/02/01 08:30:14;;;;;;;22.77;2.33;;;3.50;99.90;;;2.40;100.00;100331.94;4927228;28;20084;-79
2022/02/01 08:32:40;;;;;;;21.75;2.75;;;3.60;99.90;;;2.50;100.00;100324.78;4955210;28;20090;-77
2022/02/01 08:35:06;;;;;;;29.80;3.38;;;3.70;99.90;;;2.52;100.00;100328.22;4970369;28;20091;-79
2022/02/01 08:37:33;;;;;;;36.53;3.58;;;3.80;99.90;;;2.51;100.00;100314.38;4925969;28;20023;-78
2022/02/01 08:39:59;;;;;;;19.35;2.58;;;3.80;99.90;;;2.53;100.00;100315.19;4938142;28;20466;-76
2022/02/01 08:42:28;;;;;;;24.92;2.40;;;3.80;99.90;;;2.48;100.00;100304.03;4934000;28;20019;-77
2022/02/01 08:44:56;;;;;;;17.33;2.55;;;3.80;99.90;;;2.41;100.00;100305.03;4940041;28;20124;-77
2022/02/01 08:47:22;;;;;;;20.35;2.83;;;3.80;99.90;;;2.35;100.00;100290.41;4958427;28;20109;-77
2022/02/01 08:49:48;;;;;;;28.98;2.45;;;3.80;99.90;;;2.29;100.00;100284.47;4957140;28;20035;-79
2022/02/01 08:52:25;;;;;;;13.25;2.10;;;3.80;99.90;;;2.27;100.00;100287.13;4924206;28;20415;-76
2022/02/01 08:54:52;;;;;;;20.27;2.55;;;3.70;99.90;;;2.32;100.00;100287.03;4956225;28;20085;-77
2022/02/01 08:57:21;;;;;;;29.45;2.35;;;3.70;99.90;;;2.26;100.00;100268.06;4951945;28;20042;-77
2022/02/01 08:59:56;;;;;;;25.27;2.33;;;3.70;99.90;;;2.38;100.00;100269.59;4937371;28;20402;-76
2022/02/01 09:02:27;;;;;;;28.37;3.00;;;3.80;99.90;;;2.40;100.00;100273.00;4933137;28;20022;-77
2022/02/01 09:04:54;;;;;;;26.20;2.47;;;3.80;99.90;;;2.56;100.00;100257.94;4913832;28;20283;-77
2022/02/01 09:07:21;;;;;;;21.40;2.55;;;3.90;99.90;;;2.72;100.00;100257.59;4931000;28;20031;-77
2022/02/01 09:09:47;;;;;;;18.13;2.30;;;4.00;99.90;;;2.80;100.00;100260.91;4927933;28;20072;-78
2022/02/01 09:12:16;;;;;;;18.73;2.42;;;4.60;99.90;;;2.81;100.00;100182.03;4937917;28;20033;-77
2022/02/01 09:14:46;;;;;;;21.98;2.85;;;4.20;99.90;;;2.84;100.00;100194.94;4933828;28;20046;-78
2022/02/01 09:17:15;;;;;;;30.60;2.83;;;4.20;99.90;;;2.91;100.00;100128.03;4935099;28;20041;-77
2022/02/01 09:19:42;;;;;;;24.48;2.95;;;4.20;99.90;;;2.94;100.00;100117.53;4976293;23;20029;-77
2022/02/01 09:22:13;;;;;;;16.48;2.47;;;4.30;99.90;;;2.86;100.00;100116.00;4953896;28;20046;-77
2022/02/01 09:24:42;;;;;;;17.20;2.45;;;4.20;99.90;;;2.74;100.00;100235.88;4992210;28;20045;-78
2022/02/01 09:27:19;;;;;;;25.42;2.22;;;4.10;99.90;;;2.73;100.00;100217.75;4957717;28;20519;-78
2022/02/01 09:29:45;;;;;;;13.32;2.03;;;4.20;99.90;;;2.64;100.00;100295.03;4966059;28;20037;-79
2022/02/01 09:32:12;;;;;;;15.13;1.90;;;4.10;99.90;;;2.60;100.00;100295.13;4944316;28;20043;-81
2022/02/01 09:34:39;;;;;;;13.05;2.20;;;4.10;99.90;;;2.54;100.00;100301.31;4959225;28;20030;-78
2022/02/01 09:37:12;;;;;;;27.10;2.50;;;4.10;99.90;;;2.61;100.00;100297.72;4908206;28;20064;-79
2022/02/01 09:39:38;;;;;;;16.58;2.15;;;4.10;99.90;;;2.66;100.00;100280.25;4907148;28;20037;-79
2022/02/01 09:42:04;;;;;;;27.60;2.63;;;4.10;99.90;;;2.65;100.00;100278.53;4890334;28;20042;-78
2022/02/01 09:44:34;;;;;;;24.90;2.53;;;4.20;99.90;;;2.74;100.00;100282.69;4909533;28;20077;-80
2022/02/01 09:47:00;;;;;;;19.80;2.05;;;4.20;99.90;;;2.73;100.00;100274.94;4915831;28;20041;-79
2022/02/01 09:49:26;;;;;;;24.10;2.45;;;4.20;99.90;;;2.69;100.00;100268.94;4898210;28;20038;-79
2022/02/01 09:51:57;;;;;;;13.80;2.95;;;4.20;99.90;;;2.72;100.00;100260.22;4937221;28;20121;-78
2022/02/01 09:54:29;;;;;;;33.88;2.95;;;4.20;99.90;;;2.67;100.00;100268.97;4931406;28;20025;-79
2022/02/01 09:57:04;;;;;;;26.95;2.25;;;4.20;99.90;;;2.73;100.00;100261.94;4919026;28;20036;-79
2022/02/01 09:59:34;;;;;;;18.88;2.38;;;4.20;99.90;;;2.81;100.00;100258.28;4946996;28;20030;-78
2022/02/01 10:02:12;;;;;;;15.68;2.40;;;4.30;99.90;;;2.83;100.00;100235.69;4948148;28;20046;-79
2022/02/01 10:04:39;;;;;;;24.25;2.60;;;4.30;99.90;;;2.87;100.00;100231.25;4947291;28;20186;-78
2022/02/01 10:07:14;;;;;;;26.35;2.92;;;4.30;99.90;;;2.91;100.00;100219.91;4874723;28;20034;-78
2022/02/01 10:10:01;;;;;;;18.87;2.67;;;4.40;99.90;;;2.93;100.00;100204.28;4886892;28;20150;-78
2022/02/01 10:12:33;;;;;;;24.73;1.88;;;4.40;99.90;;;2.91;100.00;100206.91;4916793;28;20032;-78
2022/02/01 10:15:16;;;;;;;19.08;2.10;;;4.40;99.90;;;2.95;100.00;100203.34;4886230;28;20772;-78
2022/02/01 10:17:47;;;;;;;12.30;1.95;;;4.50;99.90;;;2.99;100.00;100194.56;4918830;28;20046;-79
2022/02/01 10:20:20;;;;;;;18.58;2.15;;;4.40;99.90;;;2.89;100.00;100182.66;4884897;28;20076;-77
2022/02/01 10:22:46;;;;;;;13.60;2.17;;;4.40;99.90;;;2.87;100.00;100167.13;4946621;28;20045;-78
2022/02/01 10:25:30;;;;;;;15.73;2.53;;;4.40;99.90;;;2.84;100.00;100161.97;4911652;28;20030;-77
2022/02/01 10:28:03;;;;;;;20.08;2.53;;;4.40;99.90;;;2.76;100.00;100150.06;4960130;28;20449;-78
2022/02/01 10:30:38;;;;;;;18.50;2.72;;;4.30;99.90;;;2.74;100.00;100138.84;4923590;28;20031;-79
2022/02/01 10:33:21;;;;;;;18.55;2.70;;;4.30;99.90;;;2.81;100.00;100132.63;4954034;28;20790;-79
2022/02/01 10:35:57;;;;;;;28.10;2.75;;;4.30;99.90;;;2.82;100.00;100129.13;4910058;28;20041;-78
2022/02/01 10:38:33;;;;;;;23.33;2.92;;;4.40;99.90;;;2.92;100.00;100125.41;4926224;28;20030;-78
2022/02/01 10:41:00;;;;;;;20.23;2.92;;;4.40;99.90;;;2.97;100.00;100118.34;4934844;28;20084;-78
2022/02/01 10:43:34;;;;;;;20.50;3.28;;;4.40;99.90;;;3.07;100.00;100118.97;4902702;28;20041;-79
2022/02/01 10:46:09;;;;;;;24.00;3.55;;;4.50;99.90;;;2.96;100.00;100098.44;4925705;28;20090;-77
2022/02/01 10:48:47;;;;;;;18.73;4.07;;;4.50;99.90;;;2.98;100.00;100078.44;4938972;28;20038;-78
2022/02/01 10:51:19;;;;;;;28.88;4.40;;;4.50;99.90;;;2.95;100.00;100088.06;4914448;28;20122;-78
2022/02/01 10:53:46;;;;;;;12.48;4.10;;;4.50;99.90;;;3.02;100.00;100090.47;4920664;28;20049;-78
2022/02/01 10:56:17;;;;;;;23.30;4.50;;;4.50;99.90;;;3.01;100.00;100070.53;4925345;28;20030;-78
2022/02/01 10:58:49;;;;;;;22.02;4.15;;;4.50;99.90;;;3.00;100.00;100040.25;4926222;28;20105;-78
2022/02/01 11:01:15;;;;;;;29.60;5.00;;;4.50;99.90;;;2.96;100.00;100041.22;4928674;28;20030;-78
2022/02/01 11:03:52;;;;;;;25.02;4.65;;;4.50;99.90;;;2.98;100.00;100034.22;4932453;28;20038;-78
2022/02/01 11:06:21;;;;;;;23.70;5.68;;;4.50;99.90;;;2.99;100.00;100028.13;4892260;28;20065;-78
2022/02/01 11:08:53;;;;;;;19.27;4.85;;;4.60;99.90;;;3.07;100.00;100031.38;4906937;28;20037;-78
2022/02/01 11:11:23;;;;;;;26.73;4.68;;;4.60;99.90;;;3.06;100.00;100019.25;4905566;28;20039;-78
2022/02/01 11:13:52;;;;;;;21.15;4.68;;;4.60;99.90;;;3.09;100.00;100013.13;4909635;28;20711;-78
2022/02/01 11:16:28;;;;;;;26.20;5.68;;;4.60;99.90;;;3.12;100.00;99980.97;4909882;28;20118;-78
2022/02/01 11:19:01;;;;;;;23.85;4.30;;;4.60;99.90;;;3.15;100.00;99978.28;4983611;23;20406;-79
2022/02/01 11:21:29;;;;;;;15.35;3.97;;;4.70;99.90;;;3.19;100.00;99966.88;4953080;28;20030;-78
2022/02/01 11:24:06;;;;;;;27.65;5.38;;;4.70;99.90;;;3.29;100.00;99963.13;4927917;28;20116;-78
2022/02/01 11:26:50;;;;;;;28.15;5.05;;;4.80;99.90;;;3.35;100.00;99956.88;4962824;28;20480;-78
2022/02/01 11:32:24;;;;;;;27.15;4.28;;;4.80;99.90;;;3.28;100.00;99935.41;4962786;28;20092;-79
2022/02/01 11:35:08;;;;;;;27.77;4.75;;;4.80;99.90;;;3.27;100.00;99924.16;4945986;28;20489;-78
2022/02/01 11:40:18;;;;;;;20.48;3.30;;;4.80;99.90;;;3.17;100.00;99899.28;4975190;23;20056;-79
2022/02/01 11:43:04;;;;;;;15.45;3.67;;;4.80;99.90;;;3.16;100.00;99878.53;4946918;28;20025;-78
2022/02/01 11:45:43;;;;;;;22.98;3.60;;;4.70;99.90;;;3.10;100.00;99873.50;4943156;28;20498;-79
2022/02/01 11:48:37;;;;;;;19.35;3.40;;;4.70;99.90;;;3.13;100.00;99852.59;4925760;28;20132;-79
2022/02/01 11:51:22;;;;;;;23.05;3.17;;;4.70;99.90;;;3.07;100.00;99851.91;4953128;28;20019;-78
2022/02/01 11:53:58;;;;;;;18.88;3.15;;;4.70;99.90;;;3.04;100.00;99833.75;4939994;28;20040;-78
2022/02/01 11:56:38;;;;;;;20.77;3.65;;;4.70;99.90;;;3.07;100.00;99828.50;4916753;28;20033;-78
2022/02/01 11:59:13;;;;;;;22.13;3.58;;;4.70;99.90;;;3.13;100.00;99824.84;4966542;23;20041;-78